EWG62K LIPE-EDDL
Flight info
| Callsign | EWG62K |
|---|---|
| Flight time | 1h 43m |
| Altitude | 34000 |
| Route | LUMAV L12 VIC DCT NAXAV DCT UNIMI/N0434F380 DCT MOGTI DCT KPT L608 TEDGO/N0427F370 DCT HAREM DCT LOHRE/N0432F380 Z850 ARPEG/N0368F240 Z850 ADEMI T854 DOMUX DOMUX1A |
| Aircraft | A319/M-SDE2E3FGIJ1RWXYZ/EB1 |
Departure
| Time | 2026-05-04 18:05 |
|---|---|
| Airport | Bologna Guglielmo Marconi Airport (LIPE) |
Arrival
| Time | 2026-05-04 19:49 |
|---|---|
| Airport | Düsseldorf Airport (EDDL) |
| Time | Latitude | Longitude | Altitude | Speed | Heading |
|---|---|---|---|---|---|
| 2026-05-04 17:47 | 44.52981 | 11.29566 | 131 ft | 0 kts | 206° |
| 2026-05-04 17:58 | 44.52998 | 11.29578 | 125 ft | 4 kts | 207° |
| 2026-05-04 17:58 | 44.53021 | 11.29593 | 126 ft | 4 kts | 172° |
| 2026-05-04 17:58 | 44.53041 | 11.29574 | 128 ft | 3 kts | 119° |
| 2026-05-04 17:58 | 44.53041 | 11.29576 | 128 ft | 4 kts | 117° |
| 2026-05-04 17:59 | 44.53029 | 11.29609 | 128 ft | 4 kts | 116° |
| 2026-05-04 17:59 | 44.53017 | 11.29643 | 127 ft | 4 kts | 116° |
| 2026-05-04 17:59 | 44.53012 | 11.29657 | 128 ft | 0 kts | 116° |
| 2026-05-04 18:01 | 44.53011 | 11.29660 | 129 ft | 3 kts | 116° |
| 2026-05-04 18:01 | 44.52991 | 11.29717 | 130 ft | 8 kts | 116° |
| 2026-05-04 18:01 | 44.53005 | 11.29790 | 130 ft | 13 kts | 17° |
| 2026-05-04 18:02 | 44.53223 | 11.29625 | 127 ft | 22 kts | 327° |
| 2026-05-04 18:02 | 44.53342 | 11.29428 | 131 ft | 36 kts | 296° |
| 2026-05-04 18:02 | 44.53492 | 11.29012 | 128 ft | 59 kts | 297° |
| 2026-05-04 18:02 | 44.53698 | 11.28438 | 126 ft | 72 kts | 297° |
| 2026-05-04 18:03 | 44.53868 | 11.27961 | 128 ft | 8 kts | 296° |
| 2026-05-04 18:03 | 44.53869 | 11.27957 | 126 ft | 4 kts | 296° |
| 2026-05-04 18:03 | 44.53934 | 11.27783 | 127 ft | 36 kts | 297° |
| 2026-05-04 18:03 | 44.54031 | 11.27559 | 127 ft | 9 kts | 291° |
| 2026-05-04 18:04 | 44.54011 | 11.27566 | 128 ft | 3 kts | 111° |
| 2026-05-04 18:04 | 44.53981 | 11.27650 | 128 ft | 27 kts | 118° |
| 2026-05-04 18:04 | 44.53395 | 11.29276 | 156 ft | 147 kts | 119° |
| 2026-05-04 18:05 | 44.52942 | 11.30564 | 644 ft | 148 kts | 116° |
| 2026-05-04 18:05 | 44.52856 | 11.32007 | 1280 ft | 153 kts | 84° |
| 2026-05-04 18:05 | 44.53298 | 11.33367 | 1812 ft | 156 kts | 51° |
| 2026-05-04 18:05 | 44.54063 | 11.34428 | 2273 ft | 155 kts | 42° |
| 2026-05-04 18:06 | 44.55931 | 11.36374 | 2920 ft | 189 kts | 35° |
| 2026-05-04 18:06 | 44.57074 | 11.37495 | 3225 ft | 212 kts | 35° |
| 2026-05-04 18:06 | 44.58358 | 11.38756 | 3564 ft | 239 kts | 36° |
| 2026-05-04 18:07 | 44.59792 | 11.40169 | 4061 ft | 264 kts | 36° |
| 2026-05-04 18:07 | 44.61335 | 11.41691 | 4860 ft | 275 kts | 36° |
| 2026-05-04 18:07 | 44.62862 | 11.43197 | 6106 ft | 262 kts | 36° |
| 2026-05-04 18:07 | 44.64345 | 11.44663 | 7379 ft | 254 kts | 37° |
| 2026-05-04 18:08 | 44.65785 | 11.46088 | 8312 ft | 254 kts | 37° |
| 2026-05-04 18:08 | 44.67240 | 11.47531 | 8945 ft | 258 kts | 37° |
| 2026-05-04 18:08 | 44.68698 | 11.48977 | 9575 ft | 262 kts | 37° |
| 2026-05-04 18:08 | 44.70198 | 11.50461 | 10189 ft | 265 kts | 37° |
| 2026-05-04 18:09 | 44.73235 | 11.53475 | 11429 ft | 268 kts | 37° |
| 2026-05-04 18:09 | 44.76299 | 11.56518 | 12668 ft | 271 kts | 37° |
| 2026-05-04 18:10 | 44.77842 | 11.58044 | 13284 ft | 272 kts | 37° |
| 2026-05-04 18:10 | 44.79422 | 11.59517 | 13872 ft | 274 kts | 31° |
| 2026-05-04 18:10 | 44.81148 | 11.60685 | 14381 ft | 277 kts | 22° |
| 2026-05-04 18:10 | 44.83017 | 11.61491 | 14879 ft | 289 kts | 13° |
| 2026-05-04 18:11 | 44.85084 | 11.61917 | 15098 ft | 313 kts | 3° |
| 2026-05-04 18:11 | 44.87337 | 11.62071 | 15273 ft | 336 kts | 2° |
| 2026-05-04 18:11 | 44.89751 | 11.62235 | 15406 ft | 359 kts | 2° |
| 2026-05-04 18:11 | 44.92298 | 11.62414 | 15737 ft | 372 kts | 2° |
| 2026-05-04 18:12 | 44.94901 | 11.62602 | 16319 ft | 377 kts | 2° |
| 2026-05-04 18:12 | 44.97533 | 11.62799 | 16961 ft | 380 kts | 2° |
| 2026-05-04 18:12 | 45.00186 | 11.63001 | 17615 ft | 383 kts | 1° |
| 2026-05-04 18:12 | 45.02850 | 11.63202 | 18278 ft | 385 kts | 1° |
| 2026-05-04 18:13 | 45.05542 | 11.63403 | 18859 ft | 388 kts | 1° |
| 2026-05-04 18:13 | 45.08250 | 11.63603 | 19412 ft | 391 kts | 1° |
| 2026-05-04 18:13 | 45.13738 | 11.64009 | 20518 ft | 398 kts | 1° |
| 2026-05-04 18:14 | 45.16515 | 11.64213 | 21058 ft | 401 kts | 1° |
| 2026-05-04 18:14 | 45.19320 | 11.64417 | 21594 ft | 405 kts | 1° |
| 2026-05-04 18:14 | 45.22143 | 11.64621 | 22110 ft | 408 kts | 1° |
| 2026-05-04 18:15 | 45.27864 | 11.65021 | 23114 ft | 415 kts | 1° |
| 2026-05-04 18:15 | 45.33673 | 11.65432 | 24018 ft | 421 kts | 1° |
| 2026-05-04 18:15 | 45.36606 | 11.65645 | 24443 ft | 423 kts | 1° |
| 2026-05-04 18:16 | 45.39559 | 11.65862 | 24845 ft | 426 kts | 1° |
| 2026-05-04 18:16 | 45.42535 | 11.66083 | 25240 ft | 429 kts | 1° |
| 2026-05-04 18:16 | 45.45489 | 11.66301 | 25625 ft | 431 kts | 1° |
| 2026-05-04 18:17 | 45.51566 | 11.66746 | 26380 ft | 437 kts | 2° |
| 2026-05-04 18:17 | 45.54611 | 11.66968 | 26762 ft | 440 kts | 2° |
| 2026-05-04 18:17 | 45.60724 | 11.67400 | 27492 ft | 445 kts | 1° |
| 2026-05-04 18:18 | 45.63862 | 11.67196 | 27851 ft | 447 kts | 351° |
| 2026-05-04 18:18 | 45.66907 | 11.66306 | 28208 ft | 448 kts | 342° |
| 2026-05-04 18:18 | 45.69871 | 11.65046 | 28548 ft | 451 kts | 342° |
| 2026-05-04 18:18 | 45.72889 | 11.63761 | 28832 ft | 456 kts | 342° |
| 2026-05-04 18:19 | 45.79059 | 11.61137 | 29132 ft | 469 kts | 342° |
| 2026-05-04 18:19 | 45.82208 | 11.59802 | 29282 ft | 475 kts | 342° |
| 2026-05-04 18:19 | 45.85395 | 11.58454 | 29434 ft | 480 kts | 342° |
| 2026-05-04 18:20 | 45.88615 | 11.57088 | 29603 ft | 484 kts | 342° |
| 2026-05-04 18:20 | 45.91858 | 11.55708 | 29885 ft | 486 kts | 342° |
| 2026-05-04 18:20 | 45.95099 | 11.54323 | 30211 ft | 486 kts | 342° |
| 2026-05-04 18:20 | 45.98340 | 11.52940 | 30530 ft | 486 kts | 342° |
| 2026-05-04 18:21 | 46.01577 | 11.51559 | 30897 ft | 484 kts | 341° |
| 2026-05-04 18:21 | 46.04807 | 11.50180 | 31278 ft | 482 kts | 341° |
| 2026-05-04 18:21 | 46.06941 | 11.49266 | 31539 ft | 481 kts | 341° |
| 2026-05-04 18:21 | 46.10138 | 11.47893 | 31953 ft | 478 kts | 341° |
| 2026-05-04 18:22 | 46.13319 | 11.46526 | 32394 ft | 476 kts | 341° |
| 2026-05-04 18:22 | 46.16479 | 11.45167 | 32858 ft | 473 kts | 340° |
| 2026-05-04 18:22 | 46.19622 | 11.43815 | 33304 ft | 470 kts | 340° |
| 2026-05-04 18:22 | 46.22752 | 11.42464 | 33766 ft | 468 kts | 340° |
| 2026-05-04 18:23 | 46.25866 | 11.41115 | 33994 ft | 466 kts | 340° |
| 2026-05-04 18:23 | 46.29020 | 11.39747 | 34046 ft | 464 kts | 340° |
| 2026-05-04 18:23 | 46.35140 | 11.37096 | 34016 ft | 463 kts | 340° |
| 2026-05-04 18:24 | 46.41331 | 11.34424 | 34003 ft | 463 kts | 340° |
| 2026-05-04 18:24 | 46.47458 | 11.31547 | 33999 ft | 461 kts | 333° |
| 2026-05-04 18:25 | 46.53319 | 11.27749 | 34005 ft | 462 kts | 333° |
| 2026-05-04 18:25 | 46.59195 | 11.23959 | 34020 ft | 462 kts | 333° |
| 2026-05-04 18:26 | 46.65076 | 11.20173 | 34043 ft | 463 kts | 333° |
| 2026-05-04 18:26 | 46.70959 | 11.16365 | 34062 ft | 463 kts | 333° |
| 2026-05-04 18:27 | 46.76846 | 11.12530 | 34084 ft | 463 kts | 333° |
| 2026-05-04 18:27 | 46.82737 | 11.08692 | 34083 ft | 464 kts | 333° |
| 2026-05-04 18:28 | 46.88643 | 11.04847 | 34064 ft | 465 kts | 333° |
| 2026-05-04 18:28 | 46.94552 | 11.00984 | 34042 ft | 465 kts | 333° |
| 2026-05-04 18:29 | 47.00464 | 10.97113 | 34031 ft | 466 kts | 333° |
| 2026-05-04 18:29 | 47.06377 | 10.93229 | 34016 ft | 466 kts | 333° |
| 2026-05-04 18:30 | 47.15251 | 10.87382 | 34004 ft | 467 kts | 333° |
| 2026-05-04 18:30 | 47.18179 | 10.85445 | 34283 ft | 467 kts | 333° |
| 2026-05-04 18:31 | 47.21142 | 10.83483 | 34550 ft | 466 kts | 333° |
| 2026-05-04 18:31 | 47.24101 | 10.81524 | 34899 ft | 465 kts | 333° |
| 2026-05-04 18:31 | 47.27046 | 10.79572 | 35275 ft | 464 kts | 333° |
| 2026-05-04 18:31 | 47.29984 | 10.77620 | 35631 ft | 462 kts | 333° |
| 2026-05-04 18:32 | 47.32912 | 10.75673 | 35970 ft | 461 kts | 333° |
| 2026-05-04 18:32 | 47.35833 | 10.73728 | 36314 ft | 460 kts | 333° |
| 2026-05-04 18:32 | 47.38720 | 10.71696 | 36655 ft | 458 kts | 328° |
| 2026-05-04 18:32 | 47.41386 | 10.69162 | 36978 ft | 454 kts | 322° |
| 2026-05-04 18:33 | 47.43979 | 10.66505 | 37288 ft | 453 kts | 322° |
| 2026-05-04 18:33 | 47.46570 | 10.63852 | 37610 ft | 452 kts | 322° |
| 2026-05-04 18:33 | 47.49156 | 10.61204 | 37913 ft | 452 kts | 322° |
| 2026-05-04 18:34 | 47.54312 | 10.55903 | 37986 ft | 451 kts | 322° |
| 2026-05-04 18:34 | 47.59460 | 10.50600 | 37994 ft | 451 kts | 322° |
| 2026-05-04 18:35 | 47.64617 | 10.45283 | 37996 ft | 451 kts | 322° |
| 2026-05-04 18:35 | 47.69771 | 10.39961 | 37993 ft | 452 kts | 322° |
| 2026-05-04 18:36 | 47.74919 | 10.34612 | 37987 ft | 451 kts | 320° |
| 2026-05-04 18:36 | 47.79863 | 10.28892 | 37978 ft | 450 kts | 317° |
| 2026-05-04 18:37 | 47.84617 | 10.22906 | 37977 ft | 450 kts | 316° |
| 2026-05-04 18:37 | 47.89428 | 10.16846 | 37977 ft | 450 kts | 316° |
| 2026-05-04 18:38 | 47.94241 | 10.10939 | 37973 ft | 451 kts | 317° |
| 2026-05-04 18:38 | 47.99105 | 10.05023 | 37973 ft | 451 kts | 317° |
| 2026-05-04 18:39 | 48.03963 | 9.99062 | 37971 ft | 452 kts | 317° |
| 2026-05-04 18:39 | 48.08809 | 9.93070 | 37950 ft | 452 kts | 317° |
| 2026-05-04 18:40 | 48.13655 | 9.87065 | 37947 ft | 453 kts | 317° |
| 2026-05-04 18:40 | 48.18507 | 9.81041 | 37947 ft | 453 kts | 316° |
| 2026-05-04 18:41 | 48.23360 | 9.75005 | 37950 ft | 453 kts | 316° |
| 2026-05-04 18:41 | 48.28214 | 9.68955 | 37954 ft | 454 kts | 316° |
| 2026-05-04 18:42 | 48.32988 | 9.62987 | 37961 ft | 454 kts | 316° |
| 2026-05-04 18:42 | 48.37832 | 9.56872 | 37965 ft | 454 kts | 316° |
| 2026-05-04 18:43 | 48.42649 | 9.50683 | 37980 ft | 455 kts | 316° |
| 2026-05-04 18:43 | 48.47455 | 9.44484 | 37982 ft | 455 kts | 316° |
| 2026-05-04 18:44 | 48.52269 | 9.38281 | 37981 ft | 455 kts | 316° |
| 2026-05-04 18:44 | 48.57114 | 9.32126 | 37975 ft | 457 kts | 320° |
| 2026-05-04 18:44 | 48.59850 | 9.29607 | 37981 ft | 462 kts | 331° |
| 2026-05-04 18:45 | 48.62863 | 9.27876 | 37978 ft | 467 kts | 342° |
| 2026-05-04 18:45 | 48.66069 | 9.27011 | 37974 ft | 471 kts | 353° |
| 2026-05-04 18:45 | 48.69353 | 9.27054 | 37971 ft | 474 kts | 4° |
| 2026-05-04 18:46 | 48.75919 | 9.28070 | 37967 ft | 475 kts | 4° |
| 2026-05-04 18:46 | 48.82493 | 9.29074 | 37969 ft | 475 kts | 4° |
| 2026-05-04 18:47 | 48.89085 | 9.30072 | 37974 ft | 475 kts | 3° |
| 2026-05-04 18:47 | 48.95627 | 9.31074 | 37980 ft | 476 kts | 4° |
| 2026-05-04 18:48 | 49.02226 | 9.32094 | 37970 ft | 476 kts | 4° |
| 2026-05-04 18:48 | 49.08817 | 9.33124 | 37976 ft | 476 kts | 4° |
| 2026-05-04 18:49 | 49.15417 | 9.34153 | 37977 ft | 477 kts | 4° |
| 2026-05-04 18:49 | 49.22020 | 9.35186 | 37978 ft | 477 kts | 4° |
| 2026-05-04 18:50 | 49.28626 | 9.36210 | 37981 ft | 477 kts | 4° |
| 2026-05-04 18:50 | 49.35239 | 9.37236 | 37979 ft | 478 kts | 4° |
| 2026-05-04 18:51 | 49.41852 | 9.38276 | 37980 ft | 478 kts | 4° |
| 2026-05-04 18:51 | 49.48472 | 9.39326 | 37978 ft | 478 kts | 4° |
| 2026-05-04 18:52 | 49.55094 | 9.40377 | 37977 ft | 478 kts | 4° |
| 2026-05-04 18:52 | 49.61716 | 9.41432 | 37980 ft | 478 kts | 4° |
| 2026-05-04 18:53 | 49.68341 | 9.42483 | 37981 ft | 479 kts | 3° |
| 2026-05-04 18:53 | 49.74974 | 9.43535 | 37984 ft | 479 kts | 3° |
| 2026-05-04 18:54 | 49.81601 | 9.44590 | 37983 ft | 479 kts | 3° |
| 2026-05-04 18:54 | 49.88235 | 9.45651 | 37979 ft | 479 kts | 3° |
| 2026-05-04 18:55 | 49.94860 | 9.46710 | 37982 ft | 479 kts | 3° |
| 2026-05-04 18:55 | 50.04755 | 9.46802 | 37983 ft | 470 kts | 343° |
| 2026-05-04 18:56 | 50.10708 | 9.43157 | 37977 ft | 459 kts | 324° |
| 2026-05-04 18:56 | 50.15765 | 9.37193 | 37970 ft | 455 kts | 316° |
| 2026-05-04 18:57 | 50.20676 | 9.30974 | 37969 ft | 455 kts | 316° |
| 2026-05-04 18:57 | 50.25585 | 9.24740 | 37730 ft | 453 kts | 316° |
| 2026-05-04 18:58 | 50.28031 | 9.21634 | 37430 ft | 450 kts | 316° |
| 2026-05-04 18:58 | 50.30454 | 9.18549 | 37132 ft | 448 kts | 316° |
| 2026-05-04 18:58 | 50.32861 | 9.15475 | 36839 ft | 446 kts | 316° |
| 2026-05-04 18:58 | 50.35263 | 9.12397 | 36553 ft | 446 kts | 316° |
| 2026-05-04 18:59 | 50.37660 | 9.09320 | 36266 ft | 446 kts | 316° |
| 2026-05-04 18:59 | 50.40068 | 9.06232 | 35986 ft | 446 kts | 316° |
| 2026-05-04 18:59 | 50.42466 | 9.03156 | 35707 ft | 446 kts | 316° |
| 2026-05-04 18:59 | 50.44866 | 9.00074 | 35430 ft | 446 kts | 315° |
| 2026-05-04 19:00 | 50.47264 | 8.96987 | 35159 ft | 446 kts | 315° |
| 2026-05-04 19:00 | 50.49668 | 8.93885 | 34887 ft | 447 kts | 315° |
| 2026-05-04 19:00 | 50.52073 | 8.90787 | 34616 ft | 447 kts | 315° |
| 2026-05-04 19:00 | 50.54500 | 8.87704 | 34354 ft | 448 kts | 316° |
| 2026-05-04 19:01 | 50.56957 | 8.84706 | 34092 ft | 449 kts | 317° |
| 2026-05-04 19:01 | 50.59452 | 8.81744 | 33808 ft | 449 kts | 317° |
| 2026-05-04 19:01 | 50.61958 | 8.78801 | 33504 ft | 450 kts | 318° |
| 2026-05-04 19:01 | 50.64467 | 8.75841 | 33211 ft | 450 kts | 317° |
| 2026-05-04 19:02 | 50.66971 | 8.72858 | 32918 ft | 451 kts | 317° |
| 2026-05-04 19:02 | 50.69466 | 8.69864 | 32630 ft | 452 kts | 317° |
| 2026-05-04 19:02 | 50.71964 | 8.66850 | 32321 ft | 452 kts | 317° |
| 2026-05-04 19:02 | 50.73624 | 8.64844 | 32146 ft | 453 kts | 317° |
| 2026-05-04 19:03 | 50.76126 | 8.61814 | 31868 ft | 454 kts | 317° |
| 2026-05-04 19:03 | 50.78631 | 8.58776 | 31585 ft | 454 kts | 317° |
| 2026-05-04 19:03 | 50.81143 | 8.55721 | 31304 ft | 454 kts | 317° |
| 2026-05-04 19:03 | 50.84475 | 8.51652 | 30196 ft | 462 kts | 317° |
| 2026-05-04 19:04 | 50.86193 | 8.49556 | 29906 ft | 459 kts | 317° |
| 2026-05-04 19:04 | 50.88694 | 8.46516 | 29609 ft | 447 kts | 317° |
| 2026-05-04 19:04 | 50.91163 | 8.43515 | 28251 ft | 450 kts | 318° |
| 2026-05-04 19:04 | 50.93643 | 8.40487 | 27124 ft | 450 kts | 318° |
| 2026-05-04 19:05 | 50.96107 | 8.37468 | 26355 ft | 441 kts | 318° |
| 2026-05-04 19:05 | 50.98500 | 8.34535 | 25778 ft | 429 kts | 318° |
| 2026-05-04 19:05 | 51.00828 | 8.31683 | 25228 ft | 418 kts | 319° |
| 2026-05-04 19:05 | 51.03279 | 8.29209 | 25008 ft | 418 kts | 327° |
| 2026-05-04 19:06 | 51.05802 | 8.26963 | 24876 ft | 411 kts | 327° |
| 2026-05-04 19:06 | 51.08277 | 8.24762 | 24633 ft | 404 kts | 327° |
| 2026-05-04 19:06 | 51.10711 | 8.22591 | 24391 ft | 398 kts | 327° |
| 2026-05-04 19:06 | 51.13175 | 8.20721 | 24139 ft | 388 kts | 340° |
| 2026-05-04 19:07 | 51.15803 | 8.20183 | 23973 ft | 378 kts | 0° |
| 2026-05-04 19:07 | 51.18359 | 8.20549 | 23982 ft | 358 kts | 4° |
| 2026-05-04 19:07 | 51.20768 | 8.20981 | 23984 ft | 341 kts | 4° |
| 2026-05-04 19:07 | 51.23105 | 8.21416 | 23988 ft | 336 kts | 4° |
| 2026-05-04 19:08 | 51.25415 | 8.21852 | 23987 ft | 334 kts | 4° |
| 2026-05-04 19:08 | 51.27715 | 8.22287 | 23986 ft | 333 kts | 4° |
| 2026-05-04 19:08 | 51.30016 | 8.22725 | 23983 ft | 332 kts | 4° |
| 2026-05-04 19:08 | 51.32315 | 8.23164 | 23987 ft | 332 kts | 4° |
| 2026-05-04 19:09 | 51.34611 | 8.23605 | 23986 ft | 332 kts | 4° |
| 2026-05-04 19:09 | 51.36905 | 8.24043 | 23985 ft | 332 kts | 4° |
| 2026-05-04 19:09 | 51.39179 | 8.24477 | 23988 ft | 333 kts | 4° |
| 2026-05-04 19:09 | 51.41475 | 8.24915 | 23988 ft | 333 kts | 4° |
| 2026-05-04 19:10 | 51.43779 | 8.25354 | 23989 ft | 333 kts | 4° |
| 2026-05-04 19:10 | 51.46112 | 8.25798 | 23936 ft | 334 kts | 4° |
| 2026-05-04 19:10 | 51.48428 | 8.26234 | 23681 ft | 335 kts | 4° |
| 2026-05-04 19:10 | 51.50715 | 8.26653 | 23402 ft | 334 kts | 4° |
| 2026-05-04 19:11 | 51.53014 | 8.27068 | 23102 ft | 331 kts | 4° |
| 2026-05-04 19:11 | 51.55292 | 8.27192 | 22799 ft | 324 kts | 348° |
| 2026-05-04 19:11 | 51.57423 | 8.26179 | 22505 ft | 318 kts | 335° |
| 2026-05-04 19:11 | 51.59472 | 8.24852 | 22212 ft | 317 kts | 334° |
| 2026-05-04 19:12 | 51.61504 | 8.23494 | 21917 ft | 316 kts | 334° |
| 2026-05-04 19:12 | 51.65542 | 8.20765 | 21097 ft | 313 kts | 334° |
| 2026-05-04 19:12 | 51.67541 | 8.19401 | 20657 ft | 311 kts | 334° |
| 2026-05-04 19:13 | 51.69529 | 8.18036 | 20220 ft | 310 kts | 334° |
| 2026-05-04 19:13 | 51.71515 | 8.16664 | 19980 ft | 310 kts | 334° |
| 2026-05-04 19:13 | 51.73490 | 8.15291 | 19768 ft | 309 kts | 334° |
| 2026-05-04 19:13 | 51.75460 | 8.13917 | 19561 ft | 308 kts | 334° |
| 2026-05-04 19:14 | 51.77430 | 8.12539 | 19350 ft | 307 kts | 334° |
| 2026-05-04 19:14 | 51.79387 | 8.11167 | 19114 ft | 307 kts | 334° |
| 2026-05-04 19:14 | 51.81337 | 8.09781 | 18851 ft | 305 kts | 331° |
| 2026-05-04 19:14 | 51.83035 | 8.07816 | 18595 ft | 298 kts | 309° |
| 2026-05-04 19:15 | 51.84157 | 8.05066 | 18345 ft | 291 kts | 288° |
| 2026-05-04 19:15 | 51.84510 | 8.01926 | 18057 ft | 282 kts | 263° |
| 2026-05-04 19:15 | 51.84073 | 7.98883 | 17759 ft | 276 kts | 242° |
| 2026-05-04 19:15 | 51.82961 | 7.96406 | 17472 ft | 273 kts | 220° |
| 2026-05-04 19:16 | 51.81413 | 7.94634 | 17181 ft | 274 kts | 211° |
| 2026-05-04 19:16 | 51.79813 | 7.92962 | 16887 ft | 273 kts | 212° |
| 2026-05-04 19:16 | 51.78227 | 7.91299 | 16603 ft | 271 kts | 212° |
| 2026-05-04 19:16 | 51.76653 | 7.89649 | 16316 ft | 269 kts | 212° |
| 2026-05-04 19:17 | 51.75083 | 7.88005 | 16027 ft | 268 kts | 212° |
| 2026-05-04 19:17 | 51.73521 | 7.86376 | 15754 ft | 267 kts | 212° |
| 2026-05-04 19:17 | 51.71963 | 7.84747 | 15492 ft | 268 kts | 212° |
| 2026-05-04 19:17 | 51.70403 | 7.83114 | 15249 ft | 269 kts | 212° |
| 2026-05-04 19:18 | 51.68823 | 7.81461 | 14981 ft | 271 kts | 212° |
| 2026-05-04 19:18 | 51.67236 | 7.79801 | 14714 ft | 273 kts | 212° |
| 2026-05-04 19:18 | 51.65632 | 7.78127 | 14447 ft | 275 kts | 212° |
| 2026-05-04 19:18 | 51.64022 | 7.76450 | 14181 ft | 275 kts | 212° |
| 2026-05-04 19:19 | 51.62430 | 7.74793 | 14001 ft | 269 kts | 212° |
| 2026-05-04 19:19 | 51.60882 | 7.73186 | 13974 ft | 262 kts | 212° |
| 2026-05-04 19:19 | 51.59370 | 7.71620 | 13969 ft | 261 kts | 212° |
| 2026-05-04 19:19 | 51.57847 | 7.70042 | 13970 ft | 261 kts | 212° |
| 2026-05-04 19:20 | 51.56321 | 7.68463 | 13968 ft | 260 kts | 212° |
| 2026-05-04 19:20 | 51.54799 | 7.66887 | 13978 ft | 260 kts | 212° |
| 2026-05-04 19:20 | 51.53279 | 7.65308 | 13978 ft | 260 kts | 212° |
| 2026-05-04 19:20 | 51.51756 | 7.63731 | 13973 ft | 260 kts | 212° |
| 2026-05-04 19:21 | 51.50237 | 7.62162 | 13978 ft | 260 kts | 211° |
| 2026-05-04 19:21 | 51.48713 | 7.60594 | 13760 ft | 261 kts | 211° |
| 2026-05-04 19:21 | 51.47174 | 7.59011 | 13455 ft | 264 kts | 211° |
| 2026-05-04 19:21 | 51.45622 | 7.57413 | 13162 ft | 267 kts | 212° |
| 2026-05-04 19:22 | 51.44054 | 7.55796 | 12872 ft | 269 kts | 212° |
| 2026-05-04 19:22 | 51.42551 | 7.54011 | 12591 ft | 270 kts | 220° |
| 2026-05-04 19:22 | 51.41273 | 7.51842 | 12303 ft | 265 kts | 230° |
| 2026-05-04 19:22 | 51.40238 | 7.49437 | 12048 ft | 258 kts | 235° |
| 2026-05-04 19:23 | 51.39258 | 7.47058 | 11762 ft | 254 kts | 234° |
| 2026-05-04 19:23 | 51.38284 | 7.44719 | 11464 ft | 252 kts | 234° |
| 2026-05-04 19:23 | 51.37313 | 7.42395 | 11141 ft | 251 kts | 234° |
| 2026-05-04 19:23 | 51.36343 | 7.40078 | 10827 ft | 249 kts | 234° |
| 2026-05-04 19:24 | 51.35382 | 7.37778 | 10529 ft | 248 kts | 234° |
| 2026-05-04 19:24 | 51.34427 | 7.35493 | 10253 ft | 247 kts | 234° |
| 2026-05-04 19:24 | 51.33476 | 7.33218 | 9973 ft | 245 kts | 234° |
| 2026-05-04 19:24 | 51.32530 | 7.30951 | 9680 ft | 244 kts | 234° |
| 2026-05-04 19:25 | 51.31589 | 7.28704 | 9356 ft | 243 kts | 234° |
| 2026-05-04 19:25 | 51.30652 | 7.26471 | 9074 ft | 241 kts | 234° |
| 2026-05-04 19:25 | 51.29721 | 7.24256 | 8793 ft | 239 kts | 234° |
| 2026-05-04 19:25 | 51.28796 | 7.22049 | 8505 ft | 238 kts | 234° |
| 2026-05-04 19:26 | 51.27881 | 7.19863 | 8233 ft | 237 kts | 234° |
| 2026-05-04 19:26 | 51.26968 | 7.17680 | 7962 ft | 235 kts | 234° |
| 2026-05-04 19:26 | 51.26247 | 7.15349 | 7674 ft | 237 kts | 255° |
| 2026-05-04 19:26 | 51.26298 | 7.12723 | 7400 ft | 242 kts | 284° |
| 2026-05-04 19:27 | 51.27185 | 7.10428 | 7216 ft | 249 kts | 314° |
| 2026-05-04 19:27 | 51.28553 | 7.08711 | 7061 ft | 250 kts | 321° |
| 2026-05-04 19:27 | 51.30106 | 7.07473 | 6969 ft | 253 kts | 346° |
| 2026-05-04 19:27 | 51.31870 | 7.07497 | 6885 ft | 255 kts | 14° |
| 2026-05-04 19:28 | 51.33414 | 7.08809 | 6578 ft | 253 kts | 45° |
| 2026-05-04 19:28 | 51.34518 | 7.10983 | 6261 ft | 252 kts | 55° |
| 2026-05-04 19:28 | 51.35569 | 7.13243 | 5963 ft | 252 kts | 55° |
| 2026-05-04 19:28 | 51.36614 | 7.15482 | 5702 ft | 251 kts | 54° |
| 2026-05-04 19:29 | 51.37657 | 7.17710 | 5421 ft | 250 kts | 54° |
| 2026-05-04 19:29 | 51.38697 | 7.19927 | 5123 ft | 249 kts | 54° |
| 2026-05-04 19:29 | 51.39778 | 7.22041 | 4850 ft | 248 kts | 41° |
| 2026-05-04 19:29 | 51.41296 | 7.23252 | 4556 ft | 244 kts | 8° |
| 2026-05-04 19:30 | 51.42950 | 7.23022 | 4278 ft | 238 kts | 336° |
| 2026-05-04 19:30 | 51.44390 | 7.21747 | 3973 ft | 236 kts | 324° |
| 2026-05-04 19:30 | 51.45547 | 7.19954 | 3671 ft | 231 kts | 300° |
| 2026-05-04 19:30 | 51.46175 | 7.17603 | 3354 ft | 229 kts | 282° |
| 2026-05-04 19:31 | 51.46316 | 7.15081 | 3074 ft | 226 kts | 263° |
| 2026-05-04 19:31 | 51.45969 | 7.12637 | 2995 ft | 226 kts | 246° |
| 2026-05-04 19:31 | 51.45198 | 7.10442 | 3011 ft | 226 kts | 232° |
| 2026-05-04 19:31 | 51.44249 | 7.08433 | 3004 ft | 226 kts | 232° |
| 2026-05-04 19:32 | 51.43303 | 7.06417 | 3009 ft | 226 kts | 232° |
| 2026-05-04 19:32 | 51.42374 | 7.04441 | 3007 ft | 215 kts | 232° |
| 2026-05-04 19:32 | 51.41505 | 7.02596 | 3002 ft | 201 kts | 231° |
| 2026-05-04 19:32 | 51.40693 | 7.00873 | 3006 ft | 187 kts | 232° |
| 2026-05-04 19:33 | 51.39928 | 6.99252 | 2998 ft | 179 kts | 231° |
| 2026-05-04 19:33 | 51.39185 | 6.97679 | 3003 ft | 176 kts | 231° |
| 2026-05-04 19:33 | 51.38447 | 6.96117 | 2936 ft | 176 kts | 231° |
| 2026-05-04 19:33 | 51.37711 | 6.94559 | 2751 ft | 176 kts | 231° |
| 2026-05-04 19:34 | 51.37077 | 6.92877 | 2595 ft | 180 kts | 252° |
| 2026-05-04 19:34 | 51.37217 | 6.90888 | 3163 ft | 186 kts | 297° |
| 2026-05-04 19:34 | 51.38153 | 6.89503 | 3959 ft | 189 kts | 336° |
| 2026-05-04 19:34 | 51.39457 | 6.89197 | 4729 ft | 191 kts | 359° |
| 2026-05-04 19:35 | 51.40856 | 6.89310 | 5213 ft | 213 kts | 3° |
| 2026-05-04 19:35 | 51.42413 | 6.89499 | 5700 ft | 237 kts | 4° |
| 2026-05-04 19:35 | 51.44122 | 6.89701 | 5967 ft | 250 kts | 3° |
| 2026-05-04 19:35 | 51.45854 | 6.89970 | 5992 ft | 251 kts | 12° |
| 2026-05-04 19:36 | 51.47381 | 6.91231 | 5999 ft | 249 kts | 44° |
| 2026-05-04 19:36 | 51.48395 | 6.93460 | 6009 ft | 248 kts | 62° |
| 2026-05-04 19:36 | 51.49237 | 6.95877 | 6007 ft | 248 kts | 63° |
| 2026-05-04 19:36 | 51.50061 | 6.98311 | 6009 ft | 248 kts | 63° |
| 2026-05-04 19:37 | 51.50879 | 7.00750 | 6007 ft | 248 kts | 63° |
| 2026-05-04 19:37 | 51.51694 | 7.03191 | 6008 ft | 248 kts | 63° |
| 2026-05-04 19:37 | 51.52497 | 7.05598 | 5964 ft | 247 kts | 63° |
| 2026-05-04 19:37 | 51.53303 | 7.08026 | 5731 ft | 246 kts | 63° |
| 2026-05-04 19:38 | 51.54108 | 7.10458 | 5515 ft | 246 kts | 63° |
| 2026-05-04 19:38 | 51.54908 | 7.12887 | 5297 ft | 245 kts | 63° |
| 2026-05-04 19:38 | 51.55703 | 7.15304 | 5085 ft | 245 kts | 63° |
| 2026-05-04 19:38 | 51.56494 | 7.17726 | 4868 ft | 244 kts | 63° |
| 2026-05-04 19:39 | 51.57282 | 7.20145 | 4651 ft | 243 kts | 63° |
| 2026-05-04 19:39 | 51.58036 | 7.22569 | 4417 ft | 242 kts | 70° |
| 2026-05-04 19:39 | 51.58193 | 7.25202 | 4198 ft | 236 kts | 103° |
| 2026-05-04 19:39 | 51.57458 | 7.27485 | 4046 ft | 231 kts | 137° |
| 2026-05-04 19:40 | 51.56088 | 7.28698 | 4007 ft | 227 kts | 171° |
| 2026-05-04 19:40 | 51.54544 | 7.28474 | 4009 ft | 225 kts | 204° |
| 2026-05-04 19:40 | 51.53260 | 7.27042 | 4015 ft | 226 kts | 221° |
| 2026-05-04 19:40 | 51.52168 | 7.25232 | 4010 ft | 226 kts | 230° |
| 2026-05-04 19:41 | 51.51197 | 7.23246 | 4010 ft | 227 kts | 232° |
| 2026-05-04 19:41 | 51.50249 | 7.21218 | 4011 ft | 227 kts | 233° |
| 2026-05-04 19:41 | 51.49306 | 7.19198 | 4012 ft | 227 kts | 232° |
| 2026-05-04 19:41 | 51.48357 | 7.17174 | 4011 ft | 227 kts | 232° |
| 2026-05-04 19:42 | 51.47408 | 7.15150 | 4010 ft | 227 kts | 232° |
| 2026-05-04 19:42 | 51.46460 | 7.13129 | 4009 ft | 227 kts | 232° |
| 2026-05-04 19:42 | 51.45514 | 7.11115 | 4013 ft | 227 kts | 232° |
| 2026-05-04 19:42 | 51.44883 | 7.09772 | 4012 ft | 227 kts | 232° |
| 2026-05-04 19:43 | 51.43933 | 7.07752 | 4011 ft | 227 kts | 232° |
| 2026-05-04 19:43 | 51.42690 | 7.05110 | 4006 ft | 218 kts | 232° |
| 2026-05-04 19:43 | 51.41788 | 7.03195 | 3877 ft | 213 kts | 232° |
| 2026-05-04 19:43 | 51.40912 | 7.01338 | 3750 ft | 206 kts | 232° |
| 2026-05-04 19:44 | 51.40331 | 7.00105 | 3592 ft | 204 kts | 232° |
| 2026-05-04 19:44 | 51.39486 | 6.98316 | 3335 ft | 197 kts | 231° |
| 2026-05-04 19:44 | 51.38683 | 6.96614 | 3105 ft | 187 kts | 231° |
| 2026-05-04 19:44 | 51.37926 | 6.95012 | 2837 ft | 178 kts | 231° |
| 2026-05-04 19:45 | 51.37173 | 6.93421 | 2606 ft | 175 kts | 231° |
| 2026-05-04 19:45 | 51.36451 | 6.91894 | 2371 ft | 174 kts | 231° |
| 2026-05-04 19:45 | 51.35717 | 6.90344 | 2136 ft | 172 kts | 231° |
| 2026-05-04 19:45 | 51.35004 | 6.88838 | 1908 ft | 172 kts | 231° |
| 2026-05-04 19:46 | 51.34287 | 6.87325 | 1681 ft | 167 kts | 231° |
| 2026-05-04 19:46 | 51.33637 | 6.85954 | 1463 ft | 144 kts | 231° |
| 2026-05-04 19:46 | 51.33061 | 6.84740 | 1277 ft | 131 kts | 231° |
| 2026-05-04 19:46 | 51.32513 | 6.83586 | 1093 ft | 126 kts | 231° |
| 2026-05-04 19:47 | 51.31993 | 6.82492 | 924 ft | 125 kts | 230° |
| 2026-05-04 19:47 | 51.31471 | 6.81393 | 755 ft | 124 kts | 229° |
| 2026-05-04 19:47 | 51.30951 | 6.80300 | 598 ft | 123 kts | 230° |
| 2026-05-04 19:47 | 51.30440 | 6.79224 | 431 ft | 121 kts | 231° |
| 2026-05-04 19:48 | 51.29930 | 6.78145 | 255 ft | 121 kts | 231° |
| 2026-05-04 19:48 | 51.29424 | 6.77088 | 135 ft | 113 kts | 231° |
| 2026-05-04 19:48 | 51.29013 | 6.76225 | 134 ft | 82 kts | 233° |
| 2026-05-04 19:48 | 51.28669 | 6.75503 | 130 ft | 83 kts | 232° |
| 2026-05-04 19:49 | 51.28390 | 6.74927 | 120 ft | 28 kts | 217° |
| 2026-05-04 19:49 | 51.28292 | 6.74987 | 120 ft | 19 kts | 150° |
| 2026-05-04 19:49 | 51.28161 | 6.75093 | 122 ft | 7 kts | 153° |
| 2026-05-04 19:49 | 51.28121 | 6.75126 | 120 ft | 0 kts | 153° |
| 2026-05-04 19:50 | 51.28112 | 6.75132 | 120 ft | 6 kts | 153° |
| 2026-05-04 19:50 | 51.28091 | 6.75150 | 123 ft | 0 kts | 153° |
| 2026-05-04 19:51 | 51.28086 | 6.75154 | 119 ft | 5 kts | 153° |
| 2026-05-04 19:52 | 51.27992 | 6.75229 | 121 ft | 22 kts | 153° |
| 2026-05-04 19:52 | 51.27934 | 6.75275 | 121 ft | 0 kts | 153° |
| 2026-05-04 19:53 | 51.27933 | 6.75276 | 123 ft | 1 kts | 153° |
| 2026-05-04 19:53 | 51.27885 | 6.75314 | 123 ft | 12 kts | 153° |
| 2026-05-04 19:53 | 51.27872 | 6.75324 | 124 ft | 0 kts | 153° |
| 2026-05-04 19:54 | 51.27867 | 6.75329 | 122 ft | 5 kts | 153° |
| 2026-05-04 19:54 | 51.27846 | 6.75424 | 125 ft | 14 kts | 60° |
| 2026-05-04 19:55 | 51.27895 | 6.75532 | 126 ft | 10 kts | 53° |
| 2026-05-04 19:55 | 51.27947 | 6.75640 | 127 ft | 14 kts | 51° |
| 2026-05-04 19:55 | 51.27969 | 6.75686 | 128 ft | 4 kts | 52° |
| 2026-05-04 19:55 | 51.27976 | 6.75700 | 130 ft | 0 kts | 53° |
| 2026-05-04 19:56 | 51.27977 | 6.75702 | 130 ft | 2 kts | 53° |
| 2026-05-04 19:56 | 51.28003 | 6.75758 | 128 ft | 12 kts | 53° |
| 2026-05-04 19:56 | 51.28056 | 6.75868 | 130 ft | 6 kts | 52° |
| 2026-05-04 19:57 | 51.28078 | 6.75916 | 130 ft | 5 kts | 53° |
| 2026-05-04 19:57 | 51.28094 | 6.75951 | 130 ft | 6 kts | 54° |
| 2026-05-04 19:57 | 51.28138 | 6.76040 | 130 ft | 13 kts | 52° |
| 2026-05-04 19:57 | 51.28191 | 6.76157 | 129 ft | 13 kts | 56° |
| 2026-05-04 19:58 | 51.28166 | 6.76273 | 130 ft | 12 kts | 141° |
| 2026-05-04 19:58 | 51.28121 | 6.76378 | 128 ft | 12 kts | 125° |
| 2026-05-04 19:58 | 51.28058 | 6.76454 | 129 ft | 7 kts | 158° |
| 2026-05-04 19:58 | 51.28019 | 6.76423 | 129 ft | 4 kts | 207° |
| 2026-05-04 19:59 | 51.28013 | 6.76418 | 131 ft | 1 kts | 207° |
| 2026-05-04 19:59 | 51.28010 | 6.76416 | 131 ft | 0 kts | 207° |